Peters, Pennsylvania
Current Conditions -  °F | °C
As of 3:53 PM on Sunday 21 Dec 2014 (Local Time) from KHGR Reporting Station
Clear Clear  
Wind Chill: 33°   Ceiling: Unl
Heat Index: 38°   Visibility: 10mi
Dew Point: 21°   Wind: 6mph
Humidity: 51%   Direction: 60°ENE
Pressure: 30.26"   Gusts: NA
Location:  39.8035°N, 77.9346°W
Report Text: KHGR 212053Z AUTO 06005KT 10SM CLR 03/M06 A3026 RMK AO2 SLP264 T00331061 56012
Loading
Personal Weather Stations






























Interactive Weather Map New forecast layout! Learn more

10-Day Weather Forecast

Advertisements
Track Severe Weather on mobile